Tieton, Washington
Current Conditions -  °F | °C
As of 12:53 AM on Thursday 23 Oct 2014 (Local Time) from KYKM Reporting Station
Few Clouds Few Clouds  
Wind Chill: 52°   Ceiling: Unl
Heat Index: 52°   Visibility: 10mi
Dew Point: 45°   Wind: 7mph
Humidity: 77%   Direction: 160°SSE
Pressure: 29.72"   Gusts: NA
Location:  46.7°N, 120.76°W
Report Text: KYKM 230753Z AUTO 16006KT 10SM FEW080 11/07 A2972 RMK AO2 SLP064 T01110072 401610067
Loading
Personal Weather Stations






























Interactive Weather Map
Tropical Storm Tracking
New forecast layout! Learn more

10-Day Weather Forecast

Advertisements
Track Severe Weather on mobile